createdAt,value
2023-04-11T00:01:15.660Z,9.80
2023-04-11T00:11:03.183Z,10.00
2023-04-11T00:13:31.542Z,10.40
2023-04-11T00:16:08.981Z,10.10
2023-04-11T00:18:39.520Z,7.80
2023-04-11T00:21:08.269Z,10.50
2023-04-11T00:23:37.973Z,9.70
2023-04-11T00:26:06.458Z,10.20
2023-04-11T00:28:42.684Z,9.90
2023-04-11T00:31:12.561Z,10.40
2023-04-11T00:33:41.295Z,10.50
2023-04-11T00:36:10.728Z,11.40
2023-04-11T00:38:40.346Z,10.90
2023-04-11T00:41:11.083Z,10.00
2023-04-11T00:43:49.906Z,10.40
2023-04-11T00:46:18.796Z,9.70
2023-04-11T00:48:47.974Z,10.70
2023-04-11T00:51:26.097Z,10.60
2023-04-11T00:53:54.813Z,10.40
2023-04-11T00:56:23.513Z,10.50
2023-04-11T00:58:53.839Z,9.80
2023-04-11T01:01:25.284Z,9.90
2023-04-11T01:03:54.238Z,9.90
2023-04-11T01:06:23.507Z,9.30
2023-04-11T01:08:56.199Z,9.90
2023-04-11T01:11:24.757Z,10.00
2023-04-11T01:13:52.921Z,10.00
2023-04-11T01:16:21.887Z,10.00
2023-04-11T01:18:50.947Z,9.90
2023-04-11T01:21:20.227Z,10.10
2023-04-11T01:23:49.098Z,10.90
2023-04-11T01:26:17.470Z,10.20
2023-04-11T01:28:46.281Z,10.40
2023-04-11T01:31:15.264Z,10.00
2023-04-11T01:33:45.678Z,10.40
2023-04-11T01:36:14.272Z,10.00
2023-04-11T01:38:46.835Z,10.40
2023-04-11T01:41:16.111Z,9.20
2023-04-11T01:43:47.761Z,10.00
2023-04-11T01:46:16.585Z,9.30
2023-04-11T01:48:46.119Z,9.00
2023-04-11T01:51:16.041Z,9.20
2023-04-11T01:53:47.538Z,8.90
2023-04-11T01:56:16.849Z,8.80
2023-04-11T01:58:47.834Z,8.70
2023-04-11T02:01:19.286Z,8.70
2023-04-11T02:03:48.212Z,8.80
2023-04-11T02:06:17.087Z,9.10
2023-04-11T02:08:54.124Z,8.60
2023-04-11T02:11:23.508Z,9.60
2023-04-11T02:13:53.357Z,9.50
2023-04-11T02:16:26.097Z,9.40
2023-04-11T02:18:55.138Z,9.40
2023-04-11T02:21:23.681Z,8.90
2023-04-11T02:23:55.002Z,9.10
2023-04-11T02:26:23.232Z,9.60
2023-04-11T02:28:51.525Z,8.90
2023-04-11T02:31:20.175Z,9.00
2023-04-11T02:33:48.650Z,9.00
2023-04-11T02:36:18.868Z,9.00
2023-04-11T02:38:48.682Z,9.50
2023-04-11T02:41:16.765Z,9.90
2023-04-11T02:43:52.197Z,9.80
2023-04-11T02:46:22.632Z,9.30
2023-04-11T02:48:51.056Z,9.40
2023-04-11T02:51:20.819Z,9.60
2023-04-11T02:53:48.906Z,10.20
2023-04-11T02:56:21.586Z,9.60
2023-04-11T02:58:55.755Z,9.00
2023-04-11T03:01:25.536Z,8.80
2023-04-11T03:04:00.446Z,9.20
2023-04-11T03:06:39.410Z,8.90
2023-04-11T03:09:07.707Z,8.80
2023-04-11T03:11:41.708Z,9.00
2023-04-11T03:14:10.542Z,9.50
2023-04-11T03:16:39.423Z,9.80
2023-04-11T03:19:08.950Z,9.90
2023-04-11T03:21:37.094Z,10.50
2023-04-11T03:24:06.493Z,9.60
2023-04-11T03:26:35.653Z,9.30
2023-04-11T03:29:09.069Z,10.40
2023-04-11T03:31:46.700Z,9.60
2023-04-11T03:34:16.209Z,9.10
2023-04-11T03:36:44.384Z,9.10
2023-04-11T03:39:13.792Z,9.30
2023-04-11T03:41:42.031Z,8.90
2023-04-11T03:44:11.311Z,8.80
2023-04-11T03:46:39.544Z,8.90
2023-04-11T03:49:08.084Z,9.20
2023-04-11T03:51:36.440Z,9.10
2023-04-11T03:54:07.363Z,9.30
2023-04-11T03:56:39.395Z,9.40
2023-04-11T03:59:08.581Z,8.80
2023-04-11T04:01:47.912Z,9.00
2023-04-11T04:04:16.304Z,8.60
2023-04-11T04:06:56.732Z,8.30
2023-04-11T04:09:29.571Z,8.80
2023-04-11T04:11:57.835Z,8.80
2023-04-11T04:14:33.731Z,8.90
2023-04-11T04:17:02.674Z,8.20
2023-04-11T04:19:31.281Z,8.90
2023-04-11T04:21:59.838Z,8.10
2023-04-11T04:24:32.026Z,9.00
2023-04-11T04:27:13.916Z,8.40
2023-04-11T04:29:47.894Z,8.30
2023-04-11T04:32:25.073Z,8.00
2023-04-11T04:35:02.299Z,8.30
2023-04-11T04:37:39.610Z,8.50
2023-04-11T04:40:40.289Z,8.40
2023-04-11T04:43:18.481Z,8.70
2023-04-11T04:46:12.055Z,7.80
2023-04-11T04:48:45.053Z,8.00
2023-04-11T04:51:13.562Z,7.60
2023-04-11T04:53:48.700Z,7.60
2023-04-11T04:56:17.893Z,7.90
2023-04-11T04:58:47.430Z,7.50
2023-04-11T05:01:27.403Z,7.70
2023-04-11T05:03:59.830Z,7.20
2023-04-11T05:06:40.600Z,7.90
2023-04-11T05:09:14.811Z,6.80
2023-04-11T05:11:43.572Z,7.30
2023-04-11T05:14:11.771Z,7.40
2023-04-11T05:16:45.124Z,7.60
2023-04-11T05:19:14.583Z,7.20
2023-04-11T05:21:46.451Z,8.20
2023-04-11T05:24:17.602Z,7.40
2023-04-11T05:26:47.094Z,8.00
2023-04-11T05:29:20.948Z,8.50
2023-04-11T05:31:52.112Z,8.40
2023-04-11T05:34:21.149Z,8.40
2023-04-11T05:36:50.169Z,8.60
2023-04-11T05:39:19.158Z,8.30
2023-04-11T05:41:47.422Z,7.70
2023-04-11T05:44:19.954Z,6.90
2023-04-11T05:46:48.659Z,6.70
2023-04-11T05:49:17.145Z,6.60
2023-04-11T05:51:45.358Z,7.00
2023-04-11T05:54:30.679Z,6.70
2023-04-11T05:56:59.297Z,6.80
2023-04-11T05:59:28.954Z,7.60
2023-04-11T06:01:58.734Z,6.70
2023-04-11T06:04:27.016Z,7.00
2023-04-11T06:06:55.717Z,7.00
2023-04-11T06:09:24.382Z,6.80
2023-04-11T06:11:52.479Z,6.40
2023-04-11T06:14:20.860Z,7.00
2023-04-11T06:16:48.925Z,7.30
2023-04-11T06:19:16.905Z,6.20
2023-04-11T06:21:49.374Z,6.80
2023-04-11T06:24:19.959Z,6.10
2023-04-11T06:26:49.437Z,6.70
2023-04-11T06:29:18.088Z,7.20
2023-04-11T06:31:46.623Z,6.70
2023-04-11T06:34:14.773Z,6.80
2023-04-11T06:36:43.961Z,5.80
2023-04-11T06:39:13.189Z,5.60
2023-04-11T06:41:41.976Z,6.00
2023-04-11T06:44:10.053Z,5.60
2023-04-11T06:46:42.711Z,5.90
2023-04-11T06:49:12.046Z,5.50
2023-04-11T06:51:40.145Z,6.30
2023-04-11T06:54:08.317Z,6.20
2023-04-11T06:56:37.265Z,5.90
2023-04-11T06:59:17.010Z,5.90
2023-04-11T07:01:45.716Z,6.10
2023-04-11T07:04:13.904Z,6.90
2023-04-11T07:06:50.162Z,5.80
2023-04-11T07:09:20.083Z,6.50
2023-04-11T07:11:48.290Z,5.70
2023-04-11T07:14:17.403Z,6.00
2023-04-11T07:16:47.409Z,5.70
2023-04-11T07:19:16.133Z,6.00
2023-04-11T07:21:44.300Z,5.90
2023-04-11T07:24:38.830Z,5.50
2023-04-11T07:27:07.068Z,5.10
2023-04-11T07:29:36.477Z,5.80
2023-04-11T07:32:05.872Z,5.80
2023-04-11T07:34:33.903Z,5.30
2023-04-11T07:37:02.536Z,5.40
2023-04-11T07:39:31.354Z,6.10
2023-04-11T07:41:59.430Z,5.30
2023-04-11T07:44:27.666Z,5.10
2023-04-11T07:46:56.945Z,5.20
2023-04-11T07:49:26.599Z,4.80
2023-04-11T07:51:55.257Z,4.70
2023-04-11T07:54:25.354Z,4.70
2023-04-11T07:56:53.776Z,4.20
2023-04-11T07:59:22.314Z,5.00
2023-04-11T08:01:59.449Z,4.20
2023-04-11T08:04:33.123Z,4.70
2023-04-11T08:07:11.771Z,4.40
2023-04-11T08:09:42.664Z,4.10
2023-04-11T08:12:11.429Z,4.10
2023-04-11T08:14:45.480Z,3.90
2023-04-11T08:17:27.134Z,4.00
2023-04-11T08:20:02.297Z,3.80
2023-04-11T08:22:37.167Z,3.80
2023-04-11T08:25:08.924Z,3.80
2023-04-11T08:27:38.331Z,4.10
2023-04-11T08:30:08.710Z,3.60
2023-04-11T08:32:38.596Z,3.70
2023-04-11T08:35:07.345Z,4.00
2023-04-11T08:37:37.090Z,3.50
2023-04-11T08:40:07.178Z,3.70
2023-04-11T08:42:36.465Z,3.50
2023-04-11T08:45:06.105Z,3.60
2023-04-11T08:47:36.241Z,8.80
2023-04-11T08:50:06.138Z,14.80
2023-04-11T08:52:34.474Z,6.10
2023-04-11T08:55:03.746Z,3.70
2023-04-11T08:57:32.721Z,3.50
2023-04-11T09:02:56.599Z,3.40
2023-04-11T09:05:30.600Z,3.20
2023-04-11T09:08:13.914Z,3.80
2023-04-11T09:10:45.419Z,3.10
2023-04-11T09:13:27.948Z,3.40
2023-04-11T09:16:09.547Z,3.40
2023-04-11T09:18:44.929Z,3.50
2023-04-11T09:21:14.864Z,3.60
2023-04-11T09:23:43.720Z,3.00
2023-04-11T09:26:12.867Z,3.50
2023-04-11T09:28:53.779Z,3.40
2023-04-11T09:31:23.084Z,3.20
2023-04-11T09:33:55.992Z,3.10
2023-04-11T09:36:27.331Z,3.20
2023-04-11T09:38:56.847Z,2.70
2023-04-11T09:41:36.160Z,2.90
2023-04-11T09:44:04.447Z,2.80
2023-04-11T09:46:33.174Z,2.80
2023-04-11T09:49:02.116Z,2.70
2023-04-11T09:51:35.605Z,3.00
2023-04-11T09:54:05.480Z,3.00
2023-04-11T09:56:34.870Z,3.00
2023-04-11T09:59:05.803Z,3.00
2023-04-11T10:01:34.522Z,3.20
2023-04-11T10:04:04.636Z,3.00
2023-04-11T10:06:40.838Z,3.20
2023-04-11T10:09:11.272Z,2.90
2023-04-11T10:11:44.451Z,3.20
2023-04-11T10:14:39.677Z,2.90
2023-04-11T10:17:19.758Z,3.10
2023-04-11T10:19:58.044Z,3.20
2023-04-11T10:22:51.090Z,2.70
2023-04-11T10:25:21.880Z,2.50
2023-04-11T10:28:04.941Z,2.50
2023-04-11T10:31:00.600Z,1.80
2023-04-11T10:41:16.816Z,2.00
2023-04-11T10:43:46.436Z,2.10
2023-04-11T10:46:24.753Z,2.20
2023-04-11T10:48:56.875Z,2.10
2023-04-11T10:51:26.901Z,2.20
2023-04-11T10:53:59.590Z,2.10
2023-04-11T10:56:57.624Z,2.40
2023-04-11T10:59:32.296Z,2.30
2023-04-11T11:02:01.980Z,2.30
2023-04-11T11:04:35.246Z,2.20
2023-04-11T11:07:04.798Z,2.40
2023-04-11T11:09:33.789Z,2.40
2023-04-11T11:12:16.284Z,2.20
2023-04-11T11:14:46.420Z,2.40
2023-04-11T11:17:15.747Z,2.20
2023-04-11T11:19:45.291Z,2.40
2023-04-11T11:22:17.709Z,2.60
2023-04-11T11:24:45.975Z,2.40
2023-04-11T11:27:20.284Z,2.40
2023-04-11T11:29:48.407Z,2.30
2023-04-11T11:32:25.478Z,2.60
2023-04-11T11:34:54.112Z,2.20
2023-04-11T11:37:23.360Z,2.50
2023-04-11T11:39:51.581Z,2.30
2023-04-11T11:42:19.661Z,2.40
2023-04-11T11:44:47.803Z,2.30
2023-04-11T11:47:16.228Z,2.20
2023-04-11T11:49:48.382Z,2.00
2023-04-11T11:52:33.442Z,2.50
2023-04-11T11:55:03.857Z,2.50
2023-04-11T11:57:33.592Z,2.50
2023-04-11T12:00:02.331Z,2.20
2023-04-11T12:02:39.357Z,2.10
2023-04-11T12:05:11.200Z,2.50
2023-04-11T12:07:39.758Z,2.10
2023-04-11T12:10:11.858Z,2.10
2023-04-11T12:12:53.952Z,2.30
2023-04-11T12:15:27.006Z,2.20
2023-04-11T12:17:55.732Z,2.20
2023-04-11T12:20:24.771Z,2.40
2023-04-11T12:22:54.863Z,2.00
2023-04-11T12:25:27.879Z,2.30
2023-04-11T12:27:56.996Z,2.40
2023-04-11T12:30:25.195Z,2.50
2023-04-11T12:32:54.377Z,2.50
2023-04-11T12:35:22.921Z,2.30
2023-04-11T12:37:51.809Z,2.20
2023-04-11T12:40:20.225Z,2.30
2023-04-11T12:42:56.769Z,2.30
2023-04-11T12:45:26.446Z,2.10
2023-04-11T12:47:54.731Z,2.00
2023-04-11T12:50:26.093Z,2.10
2023-04-11T12:52:56.258Z,2.50
2023-04-11T12:55:24.895Z,2.20
2023-04-11T12:57:55.432Z,2.50
2023-04-11T13:00:24.006Z,2.20
2023-04-11T13:03:12.166Z,2.50
2023-04-11T13:05:41.974Z,2.20
2023-04-11T13:08:10.411Z,2.70
2023-04-11T13:10:38.624Z,2.20
2023-04-11T13:13:17.447Z,2.50
2023-04-11T13:15:47.403Z,2.50
2023-04-11T13:18:15.747Z,2.40
2023-04-11T13:20:46.274Z,2.70
2023-04-11T13:23:16.624Z,2.40
2023-04-11T13:25:48.755Z,2.20
2023-04-11T13:28:17.100Z,2.30
2023-04-11T13:30:46.450Z,2.10
2023-04-11T13:33:15.008Z,2.10
2023-04-11T13:35:43.246Z,2.30
2023-04-11T13:40:45.741Z,2.10
2023-04-11T13:43:13.973Z,2.30
2023-04-11T13:45:42.182Z,2.50
2023-04-11T13:48:10.481Z,2.40
2023-04-11T13:50:39.850Z,2.70
2023-04-11T13:53:10.660Z,2.40
2023-04-11T13:55:40.273Z,2.40
2023-04-11T13:58:08.427Z,2.00
2023-04-11T14:00:39.290Z,2.20
2023-04-11T14:03:08.286Z,2.70
2023-04-11T14:05:37.069Z,2.20
2023-04-11T14:08:09.837Z,2.40
2023-04-11T14:10:39.630Z,2.20
2023-04-11T14:15:41.848Z,2.20
2023-04-11T14:18:10.723Z,2.10
2023-04-11T14:20:45.660Z,2.20
2023-04-11T14:23:16.582Z,2.00
2023-04-11T14:25:44.792Z,2.00
2023-04-11T14:28:13.674Z,1.80
2023-04-11T14:30:42.309Z,2.30
2023-04-11T14:33:11.317Z,2.10
2023-04-11T14:35:39.879Z,2.40
2023-04-11T14:38:08.538Z,2.10
2023-04-11T14:40:36.849Z,2.10
2023-04-11T14:43:06.378Z,1.60
2023-04-11T14:45:38.096Z,2.00
2023-04-11T14:48:06.912Z,2.30
2023-04-11T14:50:35.467Z,2.00
2023-04-11T14:53:04.925Z,1.70
2023-04-11T14:55:33.555Z,1.80
2023-04-11T14:58:08.504Z,1.60
2023-04-11T15:00:37.142Z,1.80
2023-04-11T15:03:06.101Z,1.60
2023-04-11T15:05:34.555Z,2.00
2023-04-11T15:08:03.683Z,2.00
2023-04-11T15:10:32.103Z,2.00
2023-04-11T15:13:00.884Z,2.00
2023-04-11T15:15:30.499Z,2.30
2023-04-11T15:18:18.745Z,2.30
2023-04-11T15:20:54.097Z,2.50
2023-04-11T15:23:29.116Z,2.60
2023-04-11T15:26:02.669Z,2.60
2023-04-11T15:28:36.696Z,2.40
2023-04-11T15:31:07.656Z,2.50
2023-04-11T15:33:36.812Z,2.70
2023-04-11T15:36:07.979Z,2.60
2023-04-11T15:38:36.836Z,2.10
2023-04-11T15:41:05.816Z,2.30
2023-04-11T15:43:35.877Z,2.50
2023-04-11T15:46:04.097Z,2.80
2023-04-11T15:57:54.199Z,2.50
2023-04-11T16:00:22.582Z,2.90
2023-04-11T16:02:51.469Z,3.00
2023-04-11T16:05:22.340Z,3.20
2023-04-11T16:07:50.554Z,3.20
2023-04-11T16:19:44.306Z,3.70
2023-04-11T16:22:12.284Z,3.20
2023-04-11T16:24:41.956Z,3.20
2023-04-11T16:27:10.161Z,3.20
2023-04-11T16:29:38.922Z,3.20
2023-04-11T16:32:08.425Z,3.00
2023-04-11T16:48:50.444Z,3.60
2023-04-11T16:51:18.865Z,3.40
2023-04-11T16:53:47.513Z,3.10
2023-04-11T17:05:41.748Z,3.10
2023-04-11T17:12:42.375Z,2.60
2023-04-11T17:19:59.662Z,2.70
2023-04-11T17:22:28.113Z,2.80
2023-04-11T17:24:56.444Z,3.40
2023-04-11T17:27:28.755Z,3.70
2023-04-11T17:29:57.153Z,3.80
2023-04-11T17:32:25.169Z,3.00
2023-04-11T17:34:53.379Z,3.10
2023-04-11T17:37:21.412Z,2.60
2023-04-11T17:39:49.862Z,2.70
2023-04-11T17:42:18.279Z,2.60
2023-04-11T17:44:46.649Z,2.90
2023-04-11T17:47:14.919Z,2.60
2023-04-11T17:49:45.597Z,2.90
2023-04-11T17:52:14.034Z,2.60
2023-04-11T17:54:44.323Z,2.90
2023-04-11T17:57:13.131Z,3.10
2023-04-11T17:59:41.344Z,2.70
2023-04-11T18:07:04.255Z,2.80
2023-04-11T18:09:33.860Z,2.90
2023-04-11T18:16:41.659Z,3.70
2023-04-11T18:19:10.764Z,3.20
2023-04-11T18:21:44.559Z,3.00
2023-04-11T18:24:12.686Z,2.90
2023-04-11T18:26:40.997Z,4.30
2023-04-11T18:29:11.471Z,3.30
2023-04-11T18:40:48.938Z,3.10
2023-04-11T18:43:18.381Z,3.70
2023-04-11T18:45:49.086Z,3.40
2023-04-11T18:48:17.231Z,3.50
2023-04-11T18:50:48.537Z,3.70
2023-04-11T18:58:00.622Z,4.40
2023-04-11T19:00:35.893Z,4.70
2023-04-11T19:03:15.181Z,4.50
2023-04-11T19:10:26.864Z,3.90
2023-04-11T19:12:55.080Z,4.20
2023-04-11T19:15:23.831Z,3.90
2023-04-11T19:17:53.494Z,3.70
2023-04-11T19:20:22.747Z,3.60
2023-04-11T19:32:17.663Z,3.80
2023-04-11T19:34:46.427Z,3.80
2023-04-11T19:37:16.439Z,4.30
2023-04-11T19:49:22.932Z,4.10
2023-04-11T19:56:44.364Z,4.30
2023-04-11T19:59:12.920Z,4.70
2023-04-11T20:01:42.470Z,4.40
2023-04-11T20:04:13.039Z,5.30
2023-04-11T20:06:43.996Z,4.60
2023-04-11T20:18:35.484Z,4.90
2023-04-11T20:21:07.837Z,4.90
2023-04-11T20:23:42.252Z,5.00
2023-04-11T20:26:10.732Z,4.70
2023-04-11T20:28:41.179Z,5.10
2023-04-11T20:40:22.284Z,5.00
2023-04-11T20:47:30.039Z,5.30
2023-04-11T20:50:04.208Z,5.20
2023-04-11T20:52:33.875Z,5.40
2023-04-11T20:55:04.465Z,5.10
2023-04-11T20:57:33.849Z,5.40
2023-04-11T21:09:13.322Z,5.20
2023-04-11T21:11:42.328Z,5.80
2023-04-11T21:14:21.917Z,5.80
2023-04-11T21:16:51.158Z,5.90
2023-04-11T21:19:21.370Z,6.10
2023-04-11T21:21:58.430Z,6.00
2023-04-11T21:33:51.991Z,4.30
2023-04-11T21:36:25.091Z,4.20
2023-04-11T21:38:56.794Z,4.20
2023-04-11T21:41:29.953Z,4.00
2023-04-11T21:44:03.760Z,4.10
2023-04-11T21:46:40.266Z,3.70
2023-04-11T21:53:56.150Z,3.90
2023-04-11T22:00:57.807Z,3.60
2023-04-11T22:03:29.960Z,4.00
2023-04-11T22:06:00.291Z,3.90
2023-04-11T22:08:32.189Z,3.80
2023-04-11T22:11:07.657Z,4.30
2023-04-11T22:13:46.937Z,3.60
2023-04-11T22:25:25.869Z,3.60
2023-04-11T22:35:33.028Z,3.70
2023-04-11T22:38:01.660Z,4.00
2023-04-11T22:40:30.191Z,4.00
2023-04-11T22:42:59.131Z,3.60
2023-04-11T22:45:28.234Z,3.80
2023-04-11T22:48:00.163Z,3.80
2023-04-11T22:50:29.170Z,3.40
2023-04-11T22:53:02.105Z,4.10
2023-04-11T22:55:35.765Z,4.00
2023-04-11T22:58:03.859Z,3.30
2023-04-11T23:00:38.326Z,3.30
2023-04-11T23:03:07.542Z,3.70
2023-04-11T23:05:41.326Z,3.80
2023-04-11T23:08:10.329Z,3.50
2023-04-11T23:10:39.437Z,3.40
2023-04-11T23:13:14.299Z,3.80
2023-04-11T23:15:42.987Z,3.60
2023-04-11T23:18:11.325Z,3.40
2023-04-11T23:28:36.294Z,3.70
2023-04-11T23:31:04.971Z,3.80
2023-04-11T23:33:32.146Z,3.90
2023-04-11T23:36:07.778Z,3.80
2023-04-11T23:38:36.517Z,4.00
2023-04-11T23:43:36.208Z,4.10
2023-04-11T23:46:03.377Z,4.10
2023-04-11T23:48:31.603Z,3.70
2023-04-11T23:50:58.429Z,3.80
2023-04-11T23:53:25.466Z,4.20
2023-04-11T23:55:53.146Z,4.10
2023-04-11T23:58:21.652Z,4.10
